createdAt,value
2019-03-20T00:00:42.213Z,100049.36
2019-03-20T00:03:48.031Z,100055.17
2019-03-20T00:06:53.959Z,100050.48
2019-03-20T00:09:59.692Z,100060.08
2019-03-20T00:13:06.750Z,100065.28
2019-03-20T00:16:12.477Z,100058.02
2019-03-20T00:19:18.250Z,100063.69
2019-03-20T00:22:23.979Z,100075.97
2019-03-20T00:25:29.826Z,100072.89
2019-03-20T00:28:35.763Z,100070.00
2019-03-20T00:31:41.596Z,100074.66
2019-03-20T00:34:47.378Z,100065.80
2019-03-20T00:37:53.252Z,100066.46
2019-03-20T00:40:58.987Z,100065.33
2019-03-20T00:44:04.814Z,100073.20
2019-03-20T00:47:10.640Z,100067.87
2019-03-20T00:50:16.707Z,100065.77
2019-03-20T00:53:22.599Z,100062.95
2019-03-20T00:56:28.342Z,100066.14
2019-03-20T00:59:34.085Z,100067.30
2019-03-20T01:02:39.928Z,100063.02
2019-03-20T01:05:45.743Z,100055.75
2019-03-20T01:08:51.512Z,100054.48
2019-03-20T01:11:58.364Z,100052.83
2019-03-20T01:15:04.254Z,100054.17
2019-03-20T01:18:11.099Z,100055.31
2019-03-20T01:21:18.101Z,100055.45
2019-03-20T01:24:23.860Z,100055.80
2019-03-20T01:27:29.662Z,100055.95
2019-03-20T01:30:37.656Z,100061.05
2019-03-20T01:33:43.502Z,100058.92
2019-03-20T01:36:49.170Z,100054.14
2019-03-20T01:39:54.928Z,100059.89
2019-03-20T01:43:01.799Z,100071.92
2019-03-20T01:46:07.779Z,100075.05
2019-03-20T01:49:13.517Z,100067.59
2019-03-20T01:52:19.291Z,100064.61
2019-03-20T01:55:25.189Z,100067.09
2019-03-20T01:58:30.992Z,100064.74
2019-03-20T02:01:36.810Z,100064.59
2019-03-20T02:04:42.658Z,100071.69
2019-03-20T02:07:48.498Z,100056.43
2019-03-20T02:10:54.237Z,100060.38
2019-03-20T02:14:00.083Z,100064.47
2019-03-20T02:17:05.804Z,100057.76
2019-03-20T02:20:13.732Z,100062.71
2019-03-20T02:23:19.458Z,100063.36
2019-03-20T02:26:25.234Z,100065.01
2019-03-20T02:29:31.116Z,100066.78
2019-03-20T02:32:36.860Z,100066.81
2019-03-20T02:35:51.179Z,100069.94
2019-03-20T02:38:50.252Z,100076.70
2019-03-20T02:41:56.026Z,100068.80
2019-03-20T02:45:01.821Z,100075.04
2019-03-20T02:48:07.733Z,100075.70
2019-03-20T02:51:13.599Z,100075.21
2019-03-20T02:54:19.344Z,100079.48
2019-03-20T02:57:25.079Z,100087.56
2019-03-20T03:00:30.874Z,100090.98
2019-03-20T03:03:36.674Z,100095.09
2019-03-20T03:06:42.489Z,100095.92
2019-03-20T03:09:48.301Z,100097.23
2019-03-20T03:12:54.138Z,100102.98
2019-03-20T03:16:00.000Z,100105.28
2019-03-20T03:19:05.833Z,100100.66
2019-03-20T03:22:11.763Z,100098.20
2019-03-20T03:25:17.612Z,100097.30
2019-03-20T03:28:23.596Z,100103.38
2019-03-20T03:31:29.365Z,100105.75
2019-03-20T03:34:35.135Z,100114.30
2019-03-20T03:37:41.069Z,100110.50
2019-03-20T03:40:47.847Z,100124.30
2019-03-20T03:43:53.592Z,100123.14
2019-03-20T03:46:59.321Z,100119.20
2019-03-20T03:50:05.524Z,100128.52
2019-03-20T03:53:11.425Z,100125.91
2019-03-20T03:56:17.235Z,100132.04
2019-03-20T03:59:23.066Z,100137.31
2019-03-20T04:02:28.858Z,100138.78
2019-03-20T04:05:34.788Z,100144.63
2019-03-20T04:08:40.719Z,100137.86
2019-03-20T04:11:46.560Z,100145.45
2019-03-20T04:14:52.443Z,100149.39
2019-03-20T04:17:58.178Z,100144.47
2019-03-20T04:21:04.020Z,100155.80
2019-03-20T04:24:09.755Z,100158.21
2019-03-20T04:27:15.771Z,100164.40
2019-03-20T04:30:21.787Z,100164.91
2019-03-20T04:33:27.656Z,100157.42
2019-03-20T04:36:33.503Z,100162.66
2019-03-20T04:39:39.246Z,100166.66
2019-03-20T04:42:45.077Z,100169.31
2019-03-20T04:45:50.816Z,100175.52
2019-03-20T04:48:56.728Z,100178.83
2019-03-20T04:52:02.451Z,100179.14
2019-03-20T04:55:08.570Z,100184.38
2019-03-20T04:58:14.293Z,100187.59
2019-03-20T05:01:20.131Z,100194.84
2019-03-20T05:04:25.837Z,100199.67
2019-03-20T05:07:31.703Z,100209.87
2019-03-20T05:10:37.497Z,100212.17
2019-03-20T05:13:43.229Z,100216.33
2019-03-20T05:16:49.094Z,100221.05
2019-03-20T05:19:55.001Z,100223.19
2019-03-20T05:23:00.800Z,100232.53
2019-03-20T05:26:06.538Z,100237.79
2019-03-20T05:29:12.307Z,100244.07
2019-03-20T05:32:19.749Z,100246.01
2019-03-20T05:35:25.853Z,100252.50
2019-03-20T05:38:31.587Z,100253.92
2019-03-20T05:41:37.381Z,100259.04
2019-03-20T05:44:43.161Z,100260.01
2019-03-20T05:47:49.242Z,100267.20
2019-03-20T05:50:54.962Z,100266.89
2019-03-20T05:54:00.708Z,100278.55
2019-03-20T05:57:06.486Z,100274.14
2019-03-20T06:00:13.930Z,100286.91
2019-03-20T06:03:19.667Z,100290.19
2019-03-20T06:06:25.399Z,100300.58
2019-03-20T06:09:31.181Z,100293.27
2019-03-20T06:12:36.902Z,100295.63
2019-03-20T06:15:42.751Z,100306.96
2019-03-20T06:18:48.469Z,100306.33
2019-03-20T06:21:54.271Z,100313.91
2019-03-20T06:25:00.170Z,100316.72
2019-03-20T06:28:06.362Z,100317.86
2019-03-20T06:31:12.165Z,100322.70
2019-03-20T06:34:17.922Z,100319.06
2019-03-20T06:37:32.271Z,100323.02
2019-03-20T06:40:31.263Z,100333.13
2019-03-20T06:43:37.030Z,100339.05
2019-03-20T06:46:42.833Z,100346.02
2019-03-20T06:49:48.631Z,100347.48
2019-03-20T06:52:54.526Z,100345.06
2019-03-20T06:56:00.265Z,100341.05
2019-03-20T06:59:50.810Z,100340.11
2019-03-20T07:02:56.487Z,100344.36
2019-03-20T07:06:24.826Z,100343.53
2019-03-20T07:09:41.380Z,100341.05
2019-03-20T07:12:47.137Z,100342.70
2019-03-20T07:15:52.879Z,100348.81
2019-03-20T07:18:58.666Z,100345.81
2019-03-20T07:22:04.508Z,100350.32
2019-03-20T07:25:10.340Z,100351.45
2019-03-20T07:28:16.235Z,100355.44
2019-03-20T07:31:22.019Z,100363.83
2019-03-20T07:34:27.780Z,100360.03
2019-03-20T07:37:33.803Z,100359.39
2019-03-20T07:40:39.553Z,100364.50
2019-03-20T07:43:45.372Z,100359.05
2019-03-20T07:46:51.151Z,100355.24
2019-03-20T07:49:56.992Z,100350.65
2019-03-20T07:53:02.783Z,100351.46
2019-03-20T07:56:08.714Z,100347.85
2019-03-20T07:59:14.442Z,100354.28
2019-03-20T08:02:20.341Z,100350.64
2019-03-20T08:05:29.430Z,100349.35
2019-03-20T08:08:33.632Z,100352.25
2019-03-20T08:11:40.470Z,100346.09
2019-03-20T08:14:46.364Z,100348.31
2019-03-20T08:17:52.186Z,100348.31
2019-03-20T08:20:58.093Z,100347.31
2019-03-20T08:24:03.834Z,100343.68
2019-03-20T08:27:09.629Z,100343.52
2019-03-20T08:30:16.159Z,100345.87
2019-03-20T08:33:21.940Z,100345.69
2019-03-20T08:36:27.811Z,100343.17
2019-03-20T08:39:33.555Z,100352.59
2019-03-20T08:42:39.420Z,100349.44
2019-03-20T08:45:45.165Z,100350.13
2019-03-20T08:48:50.925Z,100357.61
2019-03-20T08:51:56.696Z,100358.67
2019-03-20T08:55:02.526Z,100353.42
2019-03-20T08:58:08.380Z,100353.89
2019-03-20T09:01:14.112Z,100354.21
2019-03-20T09:04:19.843Z,100352.97
2019-03-20T09:07:25.600Z,100346.25
2019-03-20T09:10:31.365Z,100354.48
2019-03-20T09:13:37.108Z,100357.45
2019-03-20T09:16:42.952Z,100353.91
2019-03-20T09:19:48.734Z,100360.47
2019-03-20T09:22:54.578Z,100359.00
2019-03-20T09:26:00.321Z,100361.11
2019-03-20T09:29:06.241Z,100358.80
2019-03-20T09:32:12.079Z,100353.62
2019-03-20T09:35:18.953Z,100354.45
2019-03-20T09:38:24.760Z,100357.45
2019-03-20T09:41:30.490Z,100357.77
2019-03-20T09:44:36.327Z,100355.34
2019-03-20T09:47:42.172Z,100352.08
2019-03-20T09:50:48.057Z,100351.80
2019-03-20T09:53:53.784Z,100357.09
2019-03-20T09:56:59.516Z,100351.55
2019-03-20T10:00:11.193Z,100350.94
2019-03-20T10:03:16.965Z,100351.73
2019-03-20T10:06:22.891Z,100353.38
2019-03-20T10:09:28.614Z,100348.22
2019-03-20T10:12:34.395Z,100346.83
2019-03-20T10:15:40.160Z,100350.13
2019-03-20T10:18:45.924Z,100341.97
2019-03-20T10:21:51.669Z,100348.09
2019-03-20T10:24:57.506Z,100347.15
2019-03-20T10:28:03.383Z,100350.42
2019-03-20T10:31:09.173Z,100345.47
2019-03-20T10:34:15.044Z,100336.58
2019-03-20T10:37:20.770Z,100339.17
2019-03-20T10:40:26.803Z,100340.11
2019-03-20T10:43:32.570Z,100334.51
2019-03-20T10:46:38.362Z,100330.53
2019-03-20T10:49:44.197Z,100324.00
2019-03-20T10:52:50.149Z,100329.42
2019-03-20T10:55:55.886Z,100331.29
2019-03-20T10:59:01.823Z,100322.27
2019-03-20T11:02:08.599Z,100316.91
2019-03-20T11:05:15.046Z,100321.63
2019-03-20T11:08:20.987Z,100310.82
2019-03-20T11:11:27.519Z,100306.90
2019-03-20T11:14:33.264Z,100314.84
2019-03-20T11:17:40.127Z,100313.77
2019-03-20T11:20:45.843Z,100314.56
2019-03-20T11:23:51.597Z,100308.52
2019-03-20T11:26:57.459Z,100311.27
2019-03-20T11:30:03.399Z,100301.08
2019-03-20T11:33:10.360Z,100296.75
2019-03-20T11:36:16.306Z,100297.16
2019-03-20T11:39:29.544Z,100295.98
2019-03-20T11:42:29.634Z,100290.55
2019-03-20T11:45:36.570Z,100288.20
2019-03-20T11:48:42.289Z,100285.09
2019-03-20T11:51:48.241Z,100284.78
2019-03-20T11:54:54.051Z,100278.27
2019-03-20T11:57:59.895Z,100275.15
2019-03-20T12:01:06.023Z,100274.82
2019-03-20T12:04:11.850Z,100272.85
2019-03-20T12:07:17.614Z,100270.02
2019-03-20T12:10:23.774Z,100280.09
2019-03-20T12:13:29.636Z,100276.48
2019-03-20T12:16:35.429Z,100270.09
2019-03-20T12:19:45.057Z,100281.56
2019-03-20T12:22:49.307Z,100272.52
2019-03-20T12:25:55.038Z,100269.06
2019-03-20T12:29:00.784Z,100266.20
2019-03-20T12:32:06.574Z,100267.83
2019-03-20T12:35:13.403Z,100266.70
2019-03-20T12:38:23.063Z,100260.05
2019-03-20T12:41:28.794Z,100262.81
2019-03-20T12:44:34.640Z,100258.20
2019-03-20T12:47:40.415Z,100251.33
2019-03-20T12:50:47.443Z,100255.89
2019-03-20T12:53:53.332Z,100252.91
2019-03-20T12:56:59.332Z,100245.80
2019-03-20T13:00:07.135Z,100244.23
2019-03-20T13:06:19.152Z,100241.44
2019-03-20T13:09:24.941Z,100236.73
2019-03-20T13:12:30.711Z,100235.98
2019-03-20T13:15:36.449Z,100242.84
2019-03-20T13:18:42.225Z,100247.94
2019-03-20T13:21:48.018Z,100244.14
2019-03-20T13:24:53.884Z,100244.06
2019-03-20T13:27:59.806Z,100245.90
2019-03-20T13:31:12.762Z,100245.53
2019-03-20T13:34:18.493Z,100249.90
2019-03-20T13:37:25.331Z,100252.94
2019-03-20T13:40:31.102Z,100247.83
2019-03-20T13:43:36.841Z,100246.49
2019-03-20T13:46:42.613Z,100253.80
2019-03-20T13:49:48.411Z,100241.57
2019-03-20T13:52:54.169Z,100243.41
2019-03-20T13:56:01.078Z,100248.42
2019-03-20T13:59:07.217Z,100248.76
2019-03-20T14:02:12.925Z,100249.58
2019-03-20T14:05:20.212Z,100257.16
2019-03-20T14:08:25.967Z,100258.97
2019-03-20T14:11:31.702Z,100263.60
2019-03-20T14:14:37.477Z,100256.16
2019-03-20T14:17:43.436Z,100267.03
2019-03-20T14:20:49.222Z,100262.25
2019-03-20T14:23:55.010Z,100262.75
2019-03-20T14:27:00.935Z,100266.53
2019-03-20T14:30:09.956Z,100267.70
2019-03-20T14:33:15.665Z,100273.31
2019-03-20T14:36:21.504Z,100277.70
2019-03-20T14:39:27.299Z,100284.89
2019-03-20T14:42:33.028Z,100302.78
2019-03-20T14:45:38.862Z,100298.21
2019-03-20T14:48:44.718Z,100304.13
2019-03-20T14:51:50.604Z,100306.34
2019-03-20T14:54:56.353Z,100308.09
2019-03-20T14:58:02.166Z,100308.90
2019-03-20T15:01:07.911Z,100320.33
2019-03-20T15:04:13.748Z,100329.23
2019-03-20T15:07:19.501Z,100330.19
2019-03-20T15:10:25.499Z,100332.58
2019-03-20T15:13:31.249Z,100332.61
2019-03-20T15:16:37.005Z,100337.05
2019-03-20T15:19:42.802Z,100335.84
2019-03-20T15:22:48.548Z,100336.09
2019-03-20T15:25:54.463Z,100342.15
2019-03-20T15:29:00.361Z,100341.67
2019-03-20T15:32:06.410Z,100346.50
2019-03-20T15:35:12.375Z,100352.09
2019-03-20T15:38:18.108Z,100353.74
2019-03-20T15:41:23.917Z,100361.23
2019-03-20T15:44:30.759Z,100370.33
2019-03-20T15:47:36.648Z,100377.59
2019-03-20T15:50:42.520Z,100385.97
2019-03-20T15:53:48.332Z,100400.62
2019-03-20T15:56:56.066Z,100403.37
2019-03-20T16:00:02.078Z,100415.19
2019-03-20T16:03:11.163Z,100421.73
2019-03-20T16:06:17.091Z,100424.92
2019-03-20T16:09:22.870Z,100440.80
2019-03-20T16:12:28.693Z,100443.16
2019-03-20T16:15:34.465Z,100444.76
2019-03-20T16:18:40.371Z,100452.00
2019-03-20T16:21:46.191Z,100455.29
2019-03-20T16:24:51.960Z,100459.86
2019-03-20T16:27:57.996Z,100480.00
2019-03-20T16:31:03.832Z,100469.08
2019-03-20T16:34:09.616Z,100469.08
2019-03-20T16:37:15.583Z,100484.61
2019-03-20T16:40:23.015Z,100496.46
2019-03-20T16:43:28.791Z,100496.46
2019-03-20T16:46:34.706Z,100514.97
2019-03-20T16:49:40.422Z,100512.52
2019-03-20T16:52:46.567Z,100513.86
2019-03-20T16:55:52.365Z,100527.59
2019-03-20T16:58:58.194Z,100530.88
2019-03-20T17:02:04.090Z,100535.30
2019-03-20T17:05:10.358Z,100542.92
2019-03-20T17:08:16.268Z,100550.00
2019-03-20T17:11:30.385Z,100561.52
2019-03-20T17:14:29.443Z,100566.30
2019-03-20T17:17:35.340Z,100568.31
2019-03-20T17:20:41.277Z,100579.70
2019-03-20T17:23:48.562Z,100583.50
2019-03-20T17:26:55.888Z,100590.72
2019-03-20T17:30:01.690Z,100594.68
2019-03-20T17:33:07.906Z,100603.61
2019-03-20T17:36:13.729Z,100603.73
2019-03-20T17:39:19.535Z,100612.64
2019-03-20T17:42:25.438Z,100613.28
2019-03-20T17:45:32.380Z,100629.61
2019-03-20T17:48:38.135Z,100623.92
2019-03-20T17:51:43.959Z,100627.50
2019-03-20T17:54:49.743Z,100637.17
2019-03-20T17:57:55.606Z,100638.72
2019-03-20T18:01:01.646Z,100641.98
2019-03-20T18:04:07.382Z,100651.59
2019-03-20T18:07:13.198Z,100655.89
2019-03-20T18:10:18.916Z,100653.70
2019-03-20T18:13:24.830Z,100655.95
2019-03-20T18:16:30.566Z,100653.38
2019-03-20T18:19:36.365Z,100663.96
2019-03-20T18:22:42.361Z,100675.45
2019-03-20T18:25:48.088Z,100684.00
2019-03-20T18:28:53.903Z,100687.28
2019-03-20T18:31:59.632Z,100691.98
2019-03-20T18:35:05.837Z,100693.28
2019-03-20T18:38:11.720Z,100704.38
2019-03-20T18:41:17.541Z,100709.47
2019-03-20T18:44:23.391Z,100709.28
2019-03-20T18:47:29.182Z,100710.19
2019-03-20T18:50:34.949Z,100709.47
2019-03-20T18:53:40.692Z,100714.33
2019-03-20T18:56:46.431Z,100724.82
2019-03-20T18:59:52.281Z,100724.63
2019-03-20T19:02:58.873Z,100722.41
2019-03-20T19:06:08.137Z,100720.73
2019-03-20T19:09:13.870Z,100725.16
2019-03-20T19:12:19.777Z,100729.24
2019-03-20T19:15:25.850Z,100732.77
2019-03-20T19:18:31.584Z,100739.38
2019-03-20T19:21:37.341Z,100746.73
2019-03-20T19:24:43.121Z,100745.75
2019-03-20T19:27:48.839Z,100750.20
2019-03-20T19:30:54.726Z,100766.94
2019-03-20T19:34:00.911Z,100767.85
2019-03-20T19:37:06.748Z,100762.76
2019-03-20T19:41:12.104Z,100769.16
2019-03-20T19:44:50.994Z,100776.21
2019-03-20T19:49:00.409Z,100779.11
2019-03-20T19:52:48.552Z,100783.95
2019-03-20T19:56:21.545Z,100786.39
2019-03-20T19:59:27.448Z,100787.70
2019-03-20T20:03:15.261Z,100795.45
2019-03-20T20:06:22.397Z,100793.49
2019-03-20T20:09:29.146Z,100805.16
2019-03-20T20:12:35.222Z,100810.33
2019-03-20T20:15:40.999Z,100814.41
2019-03-20T20:18:47.782Z,100810.97
2019-03-20T20:21:53.953Z,100811.20
2019-03-20T20:24:59.794Z,100813.25
2019-03-20T20:28:05.819Z,100812.07
2019-03-20T20:31:11.705Z,100816.56
2019-03-20T20:34:17.436Z,100817.35
2019-03-20T20:37:23.388Z,100818.05
2019-03-20T20:40:29.209Z,100823.16
2019-03-20T20:43:34.963Z,100829.30
2019-03-20T20:46:40.773Z,100829.42
2019-03-20T20:49:46.515Z,100831.73
2019-03-20T20:52:52.294Z,100836.59
2019-03-20T20:55:58.072Z,100845.03
2019-03-20T20:59:03.918Z,100839.50
2019-03-20T21:02:09.715Z,100840.20
2019-03-20T21:05:15.769Z,100844.58
2019-03-20T21:08:21.602Z,100844.36
2019-03-20T21:11:27.473Z,100854.30
2019-03-20T21:14:33.213Z,100860.75
2019-03-20T21:18:02.181Z,100857.21
2019-03-20T21:21:08.464Z,100863.97
2019-03-20T21:24:30.254Z,100871.37
2019-03-20T21:28:29.969Z,100870.49
2019-03-20T21:32:06.337Z,100875.95
2019-03-20T21:35:54.350Z,100879.34
2019-03-20T21:39:00.678Z,100880.33
2019-03-20T21:43:06.788Z,100879.97
2019-03-20T21:46:38.033Z,100889.28
2019-03-20T21:49:44.343Z,100894.40
2019-03-20T21:52:50.606Z,100901.29
2019-03-20T21:56:23.992Z,100904.50
2019-03-20T22:00:12.438Z,100911.05
2019-03-20T22:03:18.741Z,100906.97
2019-03-20T22:07:03.902Z,100918.32
2019-03-20T22:10:55.500Z,100921.64
2019-03-20T22:14:05.563Z,100924.80
2019-03-20T22:17:53.671Z,100917.80
2019-03-20T22:21:23.408Z,100922.19
2019-03-20T22:25:06.816Z,100919.70
2019-03-20T22:28:53.365Z,100924.33
2019-03-20T22:32:19.226Z,100919.22
2019-03-20T22:35:34.465Z,100925.95
2019-03-20T22:39:24.893Z,100932.28
2019-03-20T22:42:51.210Z,100935.39
2019-03-20T22:46:39.546Z,100934.33
2019-03-20T22:50:18.432Z,100934.59
2019-03-20T22:54:06.562Z,100934.38
2019-03-20T22:57:50.137Z,100943.28
2019-03-20T23:00:57.093Z,100948.27
2019-03-20T23:04:10.113Z,100951.34
2019-03-20T23:07:16.595Z,100952.80
2019-03-20T23:10:22.848Z,100954.42
2019-03-20T23:13:29.114Z,100953.38
2019-03-20T23:16:35.368Z,100954.69
2019-03-20T23:19:42.533Z,100963.24
2019-03-20T23:22:48.867Z,100955.16
2019-03-20T23:25:55.202Z,100956.02
2019-03-20T23:29:01.571Z,100964.95
2019-03-20T23:32:07.869Z,100966.59
2019-03-20T23:35:14.430Z,100971.59
2019-03-20T23:38:20.741Z,100968.25
2019-03-20T23:41:27.206Z,100967.98
2019-03-20T23:44:33.522Z,100973.02
2019-03-20T23:48:04.345Z,100972.16
2019-03-20T23:51:13.547Z,100971.35
2019-03-20T23:54:23.065Z,100972.52
2019-03-20T23:57:29.344Z,100967.62
